Terminal Aerodrome Forecast
Issued by NWS

Home | Current Version | Previous Version | Text Only | Print | Product List | Glossary On
Versions: 1 2 3 4 5 6 7 8 9 10 11 12 13 14 15 16 17 18 19 20 21 22 23 24 25 26 27 28 29
000
FTUS43 KDMX 251739
TAFOTM
TAF
KOTM 251739Z 2518/2618 04017G25KT 5SM -SN OVC010
     FM251900 03015G23KT P6SM OVC015
     FM260500 36009KT P6SM BKN020
     FM261000 20008KT P6SM BKN025=

USA.gov is the U.S. government's official web portal to all federal, state and local government web resources and services.